createdAt,value
2018-06-03T00:00:17.825Z,22.77
2018-06-03T00:01:17.871Z,22.77
2018-06-03T00:02:17.897Z,22.78
2018-06-03T00:03:17.934Z,22.83
2018-06-03T00:04:17.988Z,22.74
2018-06-03T00:05:18.067Z,22.80
2018-06-03T00:06:18.077Z,22.68
2018-06-03T00:07:18.172Z,22.69
2018-06-03T00:08:18.178Z,22.72
2018-06-03T00:09:18.261Z,22.69
2018-06-03T00:10:18.309Z,22.67
2018-06-03T00:11:18.349Z,22.69
2018-06-03T00:12:18.388Z,22.65
2018-06-03T00:13:18.419Z,22.68
2018-06-03T00:14:18.498Z,22.67
2018-06-03T00:15:18.776Z,22.69
2018-06-03T00:16:18.588Z,22.67
2018-06-03T00:17:18.621Z,22.67
2018-06-03T00:18:18.678Z,22.64
2018-06-03T00:19:18.706Z,22.69
2018-06-03T00:20:18.772Z,22.69
2018-06-03T00:21:18.810Z,22.67
2018-06-03T00:22:18.864Z,22.68
2018-06-03T00:23:18.908Z,22.64
2018-06-03T00:24:18.950Z,22.64
2018-06-03T00:25:18.997Z,22.64
2018-06-03T00:26:19.032Z,22.65
2018-06-03T00:27:19.078Z,22.69
2018-06-03T00:28:19.150Z,22.69
2018-06-03T00:29:19.184Z,22.67
2018-06-03T00:30:19.219Z,22.64
2018-06-03T00:31:19.262Z,22.68
2018-06-03T00:32:19.316Z,22.68
2018-06-03T00:33:19.373Z,22.68
2018-06-03T00:34:19.409Z,22.69
2018-06-03T00:35:19.444Z,22.72
2018-06-03T00:36:19.499Z,22.68
2018-06-03T00:37:19.573Z,22.64
2018-06-03T00:38:19.790Z,22.62
2018-06-03T00:39:19.635Z,22.65
2018-06-03T00:40:19.720Z,22.67
2018-06-03T00:41:19.749Z,22.68
2018-06-03T00:42:19.783Z,22.68
2018-06-03T00:43:19.848Z,22.67
2018-06-03T00:44:19.882Z,22.67
2018-06-03T00:45:19.930Z,22.65
2018-06-03T00:46:19.998Z,22.62
2018-06-03T00:47:20.064Z,22.65
2018-06-03T00:48:20.110Z,22.65
2018-06-03T00:49:20.346Z,22.72
2018-06-03T00:50:20.179Z,22.67
2018-06-03T00:51:20.218Z,22.72
2018-06-03T00:52:20.275Z,22.60
2018-06-03T00:53:20.327Z,22.54
2018-06-03T00:54:20.361Z,22.53
2018-06-03T00:55:20.415Z,22.54
2018-06-03T00:56:20.440Z,22.49
2018-06-03T00:57:20.514Z,22.52
2018-06-03T00:58:20.539Z,22.38
2018-06-03T00:59:20.608Z,22.37
2018-06-03T01:00:20.657Z,22.44
2018-06-03T01:01:20.720Z,22.43
2018-06-03T01:02:20.735Z,22.37
2018-06-03T01:03:20.788Z,22.32
2018-06-03T01:04:20.864Z,22.44
2018-06-03T01:05:20.869Z,22.41
2018-06-03T01:06:20.927Z,22.52
2018-06-03T01:07:20.976Z,22.43
2018-06-03T01:08:21.033Z,22.39
2018-06-03T01:09:21.082Z,22.44
2018-06-03T01:10:21.124Z,22.44
2018-06-03T01:11:21.167Z,22.43
2018-06-03T01:12:21.211Z,22.53
2018-06-03T01:13:21.248Z,22.44
2018-06-03T01:14:21.323Z,22.43
2018-06-03T01:15:21.349Z,22.47
2018-06-03T01:16:21.426Z,22.44
2018-06-03T01:17:21.449Z,22.39
2018-06-03T01:18:21.496Z,22.49
2018-06-03T01:19:21.538Z,22.41
2018-06-03T01:20:21.601Z,22.39
2018-06-03T01:21:21.619Z,22.43
2018-06-03T01:22:21.670Z,22.46
2018-06-03T01:23:21.711Z,22.39
2018-06-03T01:24:21.785Z,22.44
2018-06-03T01:25:21.828Z,22.39
2018-06-03T01:26:21.870Z,22.43
2018-06-03T01:27:21.906Z,22.39
2018-06-03T01:28:21.972Z,22.43
2018-06-03T01:29:22.027Z,22.35
2018-06-03T01:30:22.050Z,22.39
2018-06-03T01:31:22.106Z,22.34
2018-06-03T01:32:22.150Z,22.37
2018-06-03T01:33:22.399Z,22.39
2018-06-03T01:34:22.246Z,22.38
2018-06-03T01:35:22.299Z,22.35
2018-06-03T01:36:22.351Z,22.32
2018-06-03T01:37:22.397Z,22.31
2018-06-03T01:38:22.428Z,22.32
2018-06-03T01:39:22.484Z,22.31
2018-06-03T01:40:22.527Z,22.27
2018-06-03T01:41:22.570Z,22.25
2018-06-03T01:42:22.618Z,22.19
2018-06-03T01:43:22.665Z,22.31
2018-06-03T01:44:22.738Z,22.37
2018-06-03T01:45:22.768Z,22.29
2018-06-03T01:46:22.806Z,22.22
2018-06-03T01:47:22.861Z,22.23
2018-06-03T01:48:22.934Z,22.28
2018-06-03T01:49:22.963Z,22.23
2018-06-03T01:50:23.010Z,22.23
2018-06-03T01:51:23.048Z,22.22
2018-06-03T01:52:23.101Z,22.20
2018-06-03T01:53:23.150Z,22.23
2018-06-03T01:54:23.217Z,22.23
2018-06-03T01:55:23.257Z,22.22
2018-06-03T01:56:23.296Z,22.23
2018-06-03T01:57:23.332Z,22.23
2018-06-03T01:58:23.391Z,22.29
2018-06-03T01:59:23.421Z,22.27
2018-06-03T02:00:23.473Z,22.27
2018-06-03T02:01:23.541Z,22.19
2018-06-03T02:02:23.575Z,22.23
2018-06-03T02:03:23.623Z,22.35
2018-06-03T02:04:23.663Z,22.35
2018-06-03T02:05:23.725Z,22.34
2018-06-03T02:06:23.769Z,22.28
2018-06-03T02:07:23.817Z,22.31
2018-06-03T02:08:23.864Z,22.22
2018-06-03T02:09:23.900Z,22.34
2018-06-03T02:10:23.954Z,22.25
2018-06-03T02:11:23.995Z,22.27
2018-06-03T02:12:24.040Z,22.27
2018-06-03T02:13:24.093Z,22.29
2018-06-03T02:14:24.164Z,22.27
2018-06-03T02:15:24.198Z,22.28
2018-06-03T02:16:24.242Z,22.23
2018-06-03T02:17:24.287Z,22.20
2018-06-03T02:18:24.381Z,22.20
2018-06-03T02:19:24.369Z,22.23
2018-06-03T02:20:24.438Z,22.20
2018-06-03T02:21:24.478Z,22.16
2018-06-03T02:22:24.511Z,22.16
2018-06-03T02:23:24.760Z,22.17
2018-06-03T02:24:24.606Z,22.16
2018-06-03T02:25:24.652Z,22.22
2018-06-03T02:26:24.704Z,22.10
2018-06-03T02:27:24.772Z,22.16
2018-06-03T02:28:24.808Z,22.16
2018-06-03T02:29:24.873Z,22.14
2018-06-03T02:30:24.899Z,22.14
2018-06-03T02:31:24.937Z,22.09
2018-06-03T02:32:25.000Z,22.04
2018-06-03T02:33:25.066Z,22.10
2018-06-03T02:34:25.101Z,22.01
2018-06-03T02:35:25.125Z,22.01
2018-06-03T02:36:25.195Z,21.99
2018-06-03T02:37:25.225Z,21.98
2018-06-03T02:38:25.288Z,21.97
2018-06-03T02:39:25.328Z,21.90
2018-06-03T02:40:25.383Z,21.97
2018-06-03T02:41:25.412Z,21.94
2018-06-03T02:42:25.464Z,21.94
2018-06-03T02:43:25.531Z,21.91
2018-06-03T02:44:25.566Z,21.95
2018-06-03T02:45:25.606Z,21.85
2018-06-03T02:46:25.648Z,21.82
2018-06-03T02:47:25.706Z,21.85
2018-06-03T02:48:25.776Z,21.88
2018-06-03T02:49:25.787Z,21.83
2018-06-03T02:50:26.034Z,21.82
2018-06-03T02:51:25.906Z,21.83
2018-06-03T02:52:25.994Z,21.85
2018-06-03T02:53:25.977Z,21.90
2018-06-03T02:54:26.038Z,21.81
2018-06-03T02:55:26.098Z,21.81
2018-06-03T02:56:26.122Z,21.72
2018-06-03T02:57:26.177Z,21.78
2018-06-03T02:58:26.223Z,21.72
2018-06-03T02:59:26.272Z,21.64
2018-06-03T03:00:26.308Z,21.71
2018-06-03T03:01:26.367Z,21.72
2018-06-03T03:02:26.403Z,21.71
2018-06-03T03:03:26.466Z,21.66
2018-06-03T03:04:26.499Z,21.64
2018-06-03T03:05:26.540Z,21.71
2018-06-03T03:06:26.590Z,21.75
2018-06-03T03:07:26.635Z,21.74
2018-06-03T03:08:26.697Z,21.78
2018-06-03T03:09:26.728Z,21.75
2018-06-03T03:10:26.776Z,21.75
2018-06-03T03:11:26.840Z,21.75
2018-06-03T03:12:26.868Z,21.75
2018-06-03T03:13:26.929Z,21.81
2018-06-03T03:14:26.984Z,21.79
2018-06-03T03:15:27.026Z,21.79
2018-06-03T03:16:27.074Z,21.75
2018-06-03T03:17:27.303Z,21.72
2018-06-03T03:18:27.153Z,21.81
2018-06-03T03:19:27.194Z,21.81
2018-06-03T03:20:27.241Z,21.81
2018-06-03T03:21:27.291Z,21.75
2018-06-03T03:22:27.330Z,21.69
2018-06-03T03:23:27.388Z,21.76
2018-06-03T03:24:27.427Z,21.74
2018-06-03T03:25:27.485Z,21.75
2018-06-03T03:26:27.552Z,21.76
2018-06-03T03:27:27.581Z,21.74
2018-06-03T03:28:27.632Z,21.69
2018-06-03T03:29:27.863Z,21.71
2018-06-03T03:30:27.710Z,21.67
2018-06-03T03:31:27.758Z,21.67
2018-06-03T03:32:27.797Z,21.67
2018-06-03T03:33:27.843Z,21.74
2018-06-03T03:34:27.893Z,21.69
2018-06-03T03:35:27.943Z,21.63
2018-06-03T03:36:27.989Z,21.63
2018-06-03T03:37:28.035Z,21.54
2018-06-03T03:38:28.076Z,21.59
2018-06-03T03:39:28.132Z,21.57
2018-06-03T03:40:28.398Z,21.61
2018-06-03T03:41:28.234Z,21.54
2018-06-03T03:42:28.268Z,21.48
2018-06-03T03:43:28.314Z,21.54
2018-06-03T03:44:28.356Z,21.50
2018-06-03T03:45:28.421Z,21.45
2018-06-03T03:46:28.461Z,21.44
2018-06-03T03:47:28.510Z,21.44
2018-06-03T03:48:28.561Z,21.41
2018-06-03T03:49:28.600Z,21.30
2018-06-03T03:50:28.639Z,21.35
2018-06-03T03:51:28.696Z,21.27
2018-06-03T03:52:28.731Z,21.34
2018-06-03T03:53:28.798Z,21.14
2018-06-03T03:54:28.816Z,21.20
2018-06-03T03:55:28.861Z,21.13
2018-06-03T03:56:28.912Z,21.19
2018-06-03T03:57:28.966Z,21.11
2018-06-03T03:58:29.003Z,21.06
2018-06-03T03:59:29.068Z,21.11
2018-06-03T04:00:29.108Z,21.09
2018-06-03T04:01:29.150Z,21.11
2018-06-03T04:02:29.199Z,21.05
2018-06-03T04:03:29.247Z,21.02
2018-06-03T04:04:29.304Z,21.01
2018-06-03T04:05:29.346Z,20.93
2018-06-03T04:06:29.374Z,20.87
2018-06-03T04:07:29.526Z,20.95
2018-06-03T04:08:29.475Z,20.91
2018-06-03T04:09:29.577Z,20.84
2018-06-03T04:10:29.577Z,20.77
2018-06-03T04:11:29.603Z,20.84
2018-06-03T04:12:29.866Z,20.81
2018-06-03T04:13:29.695Z,20.74
2018-06-03T04:14:29.745Z,20.80
2018-06-03T04:15:29.803Z,20.74
2018-06-03T04:16:29.827Z,20.77
2018-06-03T04:17:29.896Z,20.76
2018-06-03T04:18:29.919Z,20.71
2018-06-03T04:19:29.972Z,20.69
2018-06-03T04:20:30.029Z,20.69
2018-06-03T04:21:30.077Z,20.71
2018-06-03T04:22:30.103Z,20.71
2018-06-03T04:23:30.350Z,20.69
2018-06-03T04:24:30.210Z,20.68
2018-06-03T04:25:30.254Z,20.71
2018-06-03T04:26:30.301Z,20.62
2018-06-03T04:27:30.353Z,20.58
2018-06-03T04:28:30.374Z,20.54
2018-06-03T04:29:30.444Z,20.54
2018-06-03T04:30:30.488Z,20.51
2018-06-03T04:31:30.530Z,20.58
2018-06-03T04:32:30.560Z,20.54
2018-06-03T04:33:30.630Z,20.58
2018-06-03T04:34:30.664Z,20.50
2018-06-03T04:35:30.709Z,20.56
2018-06-03T04:36:30.744Z,20.43
2018-06-03T04:37:30.802Z,20.50
2018-06-03T04:38:30.854Z,20.47
2018-06-03T04:39:31.096Z,20.46
2018-06-03T04:40:30.930Z,20.43
2018-06-03T04:41:30.998Z,20.39
2018-06-03T04:42:31.017Z,20.46
2018-06-03T04:43:31.068Z,20.46
2018-06-03T04:44:31.125Z,20.39
2018-06-03T04:45:31.165Z,20.46
2018-06-03T04:46:31.196Z,20.43
2018-06-03T04:47:31.242Z,20.34
2018-06-03T04:48:31.298Z,20.38
2018-06-03T04:49:31.352Z,20.46
2018-06-03T04:50:31.398Z,20.39
2018-06-03T04:51:31.445Z,20.34
2018-06-03T04:52:31.497Z,20.35
2018-06-03T04:53:31.530Z,20.38
2018-06-03T04:54:31.568Z,20.39
2018-06-03T04:55:31.808Z,20.42
2018-06-03T04:56:31.661Z,20.41
2018-06-03T04:57:31.733Z,20.34
2018-06-03T04:58:31.758Z,20.39
2018-06-03T04:59:31.809Z,20.46
2018-06-03T05:00:31.860Z,20.46
2018-06-03T05:01:31.913Z,20.47
2018-06-03T05:02:31.944Z,20.49
2018-06-03T05:03:31.972Z,20.38
2018-06-03T05:04:32.032Z,20.38
2018-06-03T05:05:32.076Z,20.38
2018-06-03T05:06:32.124Z,20.39
2018-06-03T05:07:32.370Z,20.34
2018-06-03T05:08:32.212Z,20.30
2018-06-03T05:09:32.264Z,20.30
2018-06-03T05:10:32.291Z,20.31
2018-06-03T05:11:32.338Z,20.30
2018-06-03T05:12:32.398Z,20.30
2018-06-03T05:13:32.433Z,20.27
2018-06-03T05:14:32.466Z,20.24
2018-06-03T05:15:32.529Z,20.38
2018-06-03T05:16:32.560Z,20.27
2018-06-03T05:17:32.629Z,20.31
2018-06-03T05:18:32.666Z,20.35
2018-06-03T05:19:32.699Z,20.39
2018-06-03T05:20:32.763Z,20.34
2018-06-03T05:21:32.791Z,20.35
2018-06-03T05:22:32.838Z,20.41
2018-06-03T05:23:33.078Z,20.53
2018-06-03T05:24:32.932Z,20.35
2018-06-03T05:25:32.976Z,20.43
2018-06-03T05:26:33.026Z,20.43
2018-06-03T05:27:33.063Z,20.46
2018-06-03T05:28:33.103Z,20.46
2018-06-03T05:29:33.153Z,20.42
2018-06-03T05:30:33.196Z,20.46
2018-06-03T05:31:33.257Z,20.34
2018-06-03T05:32:33.298Z,20.42
2018-06-03T05:33:33.344Z,20.47
2018-06-03T05:34:33.399Z,20.46
2018-06-03T05:35:33.645Z,20.43
2018-06-03T05:36:33.485Z,20.47
2018-06-03T05:37:33.526Z,20.41
2018-06-03T05:38:33.568Z,20.34
2018-06-03T05:39:33.621Z,20.43
2018-06-03T05:40:33.649Z,20.39
2018-06-03T05:41:33.719Z,20.46
2018-06-03T05:42:33.784Z,20.46
2018-06-03T05:43:33.806Z,20.46
2018-06-03T05:44:33.863Z,20.46
2018-06-03T05:45:33.884Z,20.46
2018-06-03T05:46:33.934Z,20.50
2018-06-03T05:47:33.966Z,20.39
2018-06-03T05:48:34.048Z,20.34
2018-06-03T05:49:34.078Z,20.49
2018-06-03T05:50:34.320Z,20.42
2018-06-03T05:51:34.156Z,20.46
2018-06-03T05:52:34.218Z,20.39
2018-06-03T05:53:34.262Z,20.50
2018-06-03T05:54:34.312Z,20.46
2018-06-03T05:55:34.345Z,20.50
2018-06-03T05:56:34.384Z,20.54
2018-06-03T05:57:34.425Z,20.51
2018-06-03T05:58:34.479Z,20.58
2018-06-03T05:59:34.522Z,20.46
2018-06-03T06:00:34.563Z,20.46
2018-06-03T06:01:34.759Z,20.46
2018-06-03T06:02:34.650Z,20.47
2018-06-03T06:03:34.709Z,20.49
2018-06-03T06:04:34.758Z,20.46
2018-06-03T06:05:34.819Z,20.47
2018-06-03T06:06:34.850Z,20.50
2018-06-03T06:07:34.898Z,20.51
2018-06-03T06:08:34.939Z,20.51
2018-06-03T06:09:34.982Z,20.46
2018-06-03T06:10:35.012Z,20.46
2018-06-03T06:11:35.071Z,20.46
2018-06-03T06:12:35.306Z,20.49
2018-06-03T06:13:35.164Z,20.43
2018-06-03T06:14:35.209Z,20.42
2018-06-03T06:15:35.259Z,20.42
2018-06-03T06:16:35.302Z,20.47
2018-06-03T06:17:35.348Z,20.49
2018-06-03T06:18:35.383Z,20.42
2018-06-03T06:19:35.428Z,20.46
2018-06-03T06:20:35.489Z,20.46
2018-06-03T06:21:35.516Z,20.41
2018-06-03T06:22:35.569Z,20.47
2018-06-03T06:23:35.808Z,20.41
2018-06-03T06:24:35.648Z,20.35
2018-06-03T06:25:35.712Z,20.38
2018-06-03T06:26:35.748Z,20.35
2018-06-03T06:27:35.787Z,20.34
2018-06-03T06:28:35.853Z,20.35
2018-06-03T06:29:35.879Z,20.33
2018-06-03T06:30:35.925Z,20.41
2018-06-03T06:31:35.990Z,20.42
2018-06-03T06:32:36.028Z,20.49
2018-06-03T06:33:36.074Z,20.41
2018-06-03T06:34:36.328Z,20.39
2018-06-03T06:35:36.168Z,20.46
2018-06-03T06:36:36.196Z,20.49
2018-06-03T06:37:36.248Z,20.34
2018-06-03T06:38:36.285Z,20.42
2018-06-03T06:39:36.351Z,20.46
2018-06-03T06:40:36.382Z,20.46
2018-06-03T06:41:36.486Z,20.46
2018-06-03T06:42:36.469Z,20.42
2018-06-03T06:43:36.528Z,20.47
2018-06-03T06:44:36.566Z,20.38
2018-06-03T06:45:36.833Z,20.42
2018-06-03T06:46:36.669Z,20.35
2018-06-03T06:47:36.716Z,20.41
2018-06-03T06:48:36.765Z,20.34
2018-06-03T06:49:36.791Z,20.38
2018-06-03T06:50:36.840Z,20.35
2018-06-03T06:51:36.909Z,20.31
2018-06-03T06:52:36.949Z,20.34
2018-06-03T06:53:36.975Z,20.35
2018-06-03T06:54:37.043Z,20.35
2018-06-03T06:55:37.074Z,20.39
2018-06-03T06:56:37.139Z,20.41
2018-06-03T06:57:37.359Z,20.42
2018-06-03T06:58:37.217Z,20.43
2018-06-03T06:59:37.272Z,20.50
2018-06-03T07:00:37.316Z,20.53
2018-06-03T07:01:37.359Z,20.51
2018-06-03T07:02:37.396Z,20.51
2018-06-03T07:03:37.453Z,20.62
2018-06-03T07:04:37.480Z,20.58
2018-06-03T07:05:37.539Z,20.56
2018-06-03T07:06:37.597Z,20.51
2018-06-03T07:07:37.633Z,20.53
2018-06-03T07:08:37.671Z,20.53
2018-06-03T07:09:37.913Z,20.56
2018-06-03T07:10:37.753Z,20.56
2018-06-03T07:11:37.801Z,20.56
2018-06-03T07:12:37.858Z,20.56
2018-06-03T07:13:37.913Z,20.56
2018-06-03T07:14:37.948Z,20.53
2018-06-03T07:15:37.985Z,20.53
2018-06-03T07:16:38.046Z,20.47
2018-06-03T07:17:38.095Z,20.47
2018-06-03T07:18:38.141Z,20.34
2018-06-03T07:19:38.189Z,20.46
2018-06-03T07:20:38.219Z,20.38
2018-06-03T07:21:38.257Z,20.41
2018-06-03T07:22:38.314Z,20.34
2018-06-03T07:23:38.364Z,20.42
2018-06-03T07:24:38.395Z,20.35
2018-06-03T07:25:38.643Z,20.35
2018-06-03T07:26:38.494Z,20.38
2018-06-03T07:27:38.539Z,20.39
2018-06-03T07:28:38.590Z,20.41
2018-06-03T07:29:38.632Z,20.41
2018-06-03T07:30:38.677Z,20.49
2018-06-03T07:31:38.716Z,20.38
2018-06-03T07:32:38.767Z,20.46
2018-06-03T07:33:38.810Z,20.47
2018-06-03T07:34:38.874Z,20.35
2018-06-03T07:35:38.914Z,20.35
2018-06-03T07:36:38.960Z,20.35
2018-06-03T07:37:39.005Z,20.46
2018-06-03T07:38:39.053Z,20.39
2018-06-03T07:39:39.086Z,20.43
2018-06-03T07:40:39.144Z,20.43
2018-06-03T07:41:39.372Z,20.42
2018-06-03T07:42:39.240Z,20.46
2018-06-03T07:43:39.353Z,20.42
2018-06-03T07:44:39.311Z,20.42
2018-06-03T07:45:39.360Z,20.43
2018-06-03T07:46:39.414Z,20.39
2018-06-03T07:47:39.568Z,20.46
2018-06-03T07:48:39.605Z,20.38
2018-06-03T07:49:39.556Z,20.35
2018-06-03T07:50:39.583Z,20.34
2018-06-03T07:51:39.648Z,20.46
2018-06-03T07:52:39.680Z,20.41
2018-06-03T07:53:39.922Z,20.33
2018-06-03T07:54:39.783Z,20.43
2018-06-03T07:55:39.810Z,20.41
2018-06-03T07:56:39.859Z,20.39
2018-06-03T07:57:39.911Z,20.31
2018-06-03T07:58:39.975Z,20.25
2018-06-03T07:59:39.994Z,20.27
2018-06-03T08:00:40.037Z,20.28
2018-06-03T08:01:40.083Z,20.27
2018-06-03T08:02:40.138Z,20.27
2018-06-03T08:03:40.182Z,20.24
2018-06-03T08:04:40.218Z,20.23
2018-06-03T08:05:40.288Z,20.20
2018-06-03T08:06:40.327Z,20.21
2018-06-03T08:07:40.357Z,20.20
2018-06-03T08:08:40.411Z,20.27
2018-06-03T08:09:40.666Z,20.25
2018-06-03T08:10:40.500Z,20.30
2018-06-03T08:11:40.552Z,20.15
2018-06-03T08:12:40.603Z,20.13
2018-06-03T08:13:40.678Z,20.18
2018-06-03T08:14:40.666Z,20.03
2018-06-03T08:15:40.736Z,20.03
2018-06-03T08:16:40.777Z,20.06
2018-06-03T08:17:40.816Z,20.02
2018-06-03T08:18:40.852Z,20.09
2018-06-03T08:19:40.892Z,20.05
2018-06-03T08:20:40.944Z,20.00
2018-06-03T08:21:41.011Z,19.97
2018-06-03T08:22:41.057Z,20.00
2018-06-03T08:23:41.074Z,19.88
2018-06-03T08:24:41.139Z,19.90
2018-06-03T08:25:41.184Z,19.90
2018-06-03T08:26:41.216Z,19.87
2018-06-03T08:27:41.314Z,19.91
2018-06-03T08:28:41.299Z,19.93
2018-06-03T08:29:41.366Z,19.93
2018-06-03T08:30:41.586Z,19.90
2018-06-03T08:31:41.449Z,19.94
2018-06-03T08:32:41.486Z,19.87
2018-06-03T08:33:41.541Z,19.88
2018-06-03T08:34:41.576Z,19.88
2018-06-03T08:35:41.619Z,19.87
2018-06-03T08:36:41.652Z,20.02
2018-06-03T08:37:41.702Z,19.94
2018-06-03T08:38:41.761Z,19.91
2018-06-03T08:39:41.810Z,19.86
2018-06-03T08:40:41.831Z,20.00
2018-06-03T08:41:41.885Z,19.86
2018-06-03T08:42:41.938Z,19.90
2018-06-03T08:43:41.988Z,19.97
2018-06-03T08:44:42.009Z,19.88
2018-06-03T08:45:42.086Z,19.87
2018-06-03T08:46:42.310Z,19.90
2018-06-03T08:47:42.159Z,19.90
2018-06-03T08:48:42.193Z,19.93
2018-06-03T08:49:42.249Z,19.87
2018-06-03T08:50:42.301Z,19.86
2018-06-03T08:51:42.326Z,19.84
2018-06-03T08:52:42.383Z,19.75
2018-06-03T08:53:42.436Z,19.79
2018-06-03T08:54:42.457Z,19.72
2018-06-03T08:55:42.520Z,19.73
2018-06-03T08:56:42.557Z,19.79
2018-06-03T08:57:42.810Z,19.78
2018-06-03T08:58:42.637Z,19.83
2018-06-03T08:59:42.694Z,19.83
2018-06-03T09:00:42.733Z,19.73
2018-06-03T09:01:42.767Z,19.73
2018-06-03T09:02:42.837Z,19.73
2018-06-03T09:03:42.878Z,19.75
2018-06-03T09:04:42.905Z,19.63
2018-06-03T09:05:42.949Z,19.61
2018-06-03T09:06:42.996Z,19.63
2018-06-03T09:07:43.034Z,19.57
2018-06-03T09:08:43.185Z,19.55
2018-06-03T09:09:43.338Z,19.53
2018-06-03T09:10:43.172Z,19.40
2018-06-03T09:11:43.228Z,19.42
2018-06-03T09:12:43.253Z,19.47
2018-06-03T09:13:43.305Z,19.31
2018-06-03T09:14:43.363Z,19.50
2018-06-03T09:15:43.401Z,19.42
2018-06-03T09:16:43.436Z,19.40
2018-06-03T09:17:43.496Z,19.29
2018-06-03T09:18:43.551Z,19.38
2018-06-03T09:19:43.580Z,19.38
2018-06-03T09:20:43.619Z,19.29
2018-06-03T09:21:43.658Z,19.32
2018-06-03T09:22:43.711Z,19.29
2018-06-03T09:23:43.743Z,19.28
2018-06-03T09:24:43.791Z,19.31
2018-06-03T09:25:43.833Z,19.35
2018-06-03T09:26:43.897Z,19.35
2018-06-03T09:27:43.935Z,19.29
2018-06-03T09:28:43.975Z,19.31
2018-06-03T09:29:44.020Z,19.33
2018-06-03T09:30:44.052Z,19.35
2018-06-03T09:31:44.114Z,19.28
2018-06-03T09:33:44.188Z,19.33
2018-06-03T09:34:44.305Z,19.29
2018-06-03T09:35:44.272Z,19.33
2018-06-03T09:36:44.537Z,19.43
2018-06-03T09:37:44.378Z,19.35
2018-06-03T09:38:44.416Z,19.35
2018-06-03T09:39:44.454Z,19.29
2018-06-03T09:40:44.499Z,19.25
2018-06-03T09:41:44.551Z,19.32
2018-06-03T09:42:44.579Z,19.14
2018-06-03T09:43:44.635Z,19.06
2018-06-03T09:44:44.693Z,18.97
2018-06-03T09:45:44.711Z,18.97
2018-06-03T09:46:44.752Z,18.94
2018-06-03T09:47:44.804Z,18.91
2018-06-03T09:48:44.841Z,18.80
2018-06-03T09:49:44.891Z,18.76
2018-06-03T09:50:44.959Z,18.79
2018-06-03T09:51:45.242Z,18.67
2018-06-03T09:52:45.020Z,18.59
2018-06-03T09:53:45.080Z,18.54
2018-06-03T09:54:45.103Z,18.40
2018-06-03T09:55:45.160Z,18.46
2018-06-03T09:56:45.204Z,18.34
2018-06-03T09:57:45.240Z,18.28
2018-06-03T09:58:45.295Z,18.28
2018-06-03T09:59:45.325Z,18.24
2018-06-03T10:00:45.387Z,18.21
2018-06-03T10:01:45.415Z,18.17
2018-06-03T10:02:45.462Z,18.07
2018-06-03T10:03:45.702Z,18.21
2018-06-03T10:04:45.540Z,18.13
2018-06-03T10:05:45.605Z,18.21
2018-06-03T10:06:45.635Z,18.22
2018-06-03T10:07:45.679Z,18.06
2018-06-03T10:08:45.724Z,18.15
2018-06-03T10:09:45.750Z,18.09
2018-06-03T10:10:45.799Z,18.06
2018-06-03T10:11:45.841Z,18.09
2018-06-03T10:12:45.886Z,18.12
2018-06-03T10:13:45.925Z,18.09
2018-06-03T10:14:45.987Z,18.12
2018-06-03T10:15:46.014Z,18.07
2018-06-03T10:16:46.058Z,18.06
2018-06-03T10:17:46.101Z,17.97
2018-06-03T10:18:46.355Z,17.97
2018-06-03T10:19:46.180Z,17.94
2018-06-03T10:20:46.253Z,17.88
2018-06-03T10:21:46.274Z,17.95
2018-06-03T10:22:46.314Z,17.89
2018-06-03T10:23:46.366Z,17.81
2018-06-03T10:24:46.397Z,17.87
2018-06-03T10:25:46.452Z,17.84
2018-06-03T10:26:46.505Z,17.82
2018-06-03T10:27:46.541Z,17.82
2018-06-03T10:28:46.582Z,17.87
2018-06-03T10:29:46.623Z,17.85
2018-06-03T10:30:46.860Z,17.82
2018-06-03T10:31:46.693Z,17.81
2018-06-03T10:32:46.743Z,17.79
2018-06-03T10:33:46.797Z,17.81
2018-06-03T10:34:46.837Z,17.76
2018-06-03T10:35:46.870Z,17.64
2018-06-03T10:36:46.923Z,17.73
2018-06-03T10:37:46.950Z,17.74
2018-06-03T10:38:46.992Z,17.69
2018-06-03T10:39:47.048Z,17.70
2018-06-03T10:40:47.099Z,17.69
2018-06-03T10:41:47.137Z,17.67
2018-06-03T10:42:47.367Z,17.54
2018-06-03T10:43:47.277Z,17.47
2018-06-03T10:44:47.265Z,17.44
2018-06-03T10:45:47.290Z,17.50
2018-06-03T10:46:47.356Z,17.62
2018-06-03T10:47:47.388Z,17.71
2018-06-03T10:48:47.439Z,17.66
2018-06-03T10:49:47.487Z,17.78
2018-06-03T10:50:47.536Z,17.69
2018-06-03T10:51:47.563Z,17.71
2018-06-03T10:52:47.591Z,17.66
2018-06-03T10:53:47.651Z,17.69
2018-06-03T10:54:47.889Z,17.67
2018-06-03T10:55:47.731Z,17.54
2018-06-03T10:56:47.803Z,17.57
2018-06-03T10:57:47.828Z,17.55
2018-06-03T10:58:47.856Z,17.54
2018-06-03T10:59:47.936Z,17.51
2018-06-03T11:00:47.933Z,17.54
2018-06-03T11:01:47.985Z,17.63
2018-06-03T11:02:48.017Z,17.51
2018-06-03T11:03:48.057Z,17.55
2018-06-03T11:04:48.109Z,17.54
2018-06-03T11:05:48.167Z,17.67
2018-06-03T11:06:48.386Z,17.64
2018-06-03T11:07:48.225Z,17.62
2018-06-03T11:08:48.278Z,17.64
2018-06-03T11:09:48.319Z,17.71
2018-06-03T11:10:48.377Z,17.67
2018-06-03T11:11:48.411Z,17.73
2018-06-03T11:12:48.658Z,17.67
2018-06-03T11:13:48.492Z,17.66
2018-06-03T11:14:48.531Z,17.70
2018-06-03T11:15:48.588Z,17.76
2018-06-03T11:16:48.613Z,17.74
2018-06-03T11:17:48.678Z,17.67
2018-06-03T11:18:48.720Z,17.66
2018-06-03T11:19:48.768Z,17.66
2018-06-03T11:20:48.815Z,17.54
2018-06-03T11:21:48.846Z,17.57
2018-06-03T11:22:48.872Z,17.70
2018-06-03T11:23:49.127Z,17.63
2018-06-03T11:24:48.972Z,17.66
2018-06-03T11:25:49.019Z,17.67
2018-06-03T11:26:49.051Z,17.59
2018-06-03T11:27:49.085Z,17.57
2018-06-03T11:28:49.129Z,17.59
2018-06-03T11:29:49.195Z,17.47
2018-06-03T11:30:49.217Z,17.50
2018-06-03T11:31:49.260Z,17.46
2018-06-03T11:32:49.313Z,17.44
2018-06-03T11:33:49.359Z,17.44
2018-06-03T11:34:49.602Z,17.46
2018-06-03T11:35:49.452Z,17.48
2018-06-03T11:36:49.474Z,17.46
2018-06-03T11:37:49.537Z,17.47
2018-06-03T11:38:49.581Z,17.50
2018-06-03T11:39:49.629Z,17.48
2018-06-03T11:40:49.661Z,17.48
2018-06-03T11:41:49.706Z,17.53
2018-06-03T11:42:49.727Z,17.46
2018-06-03T11:43:49.778Z,17.51
2018-06-03T11:44:49.840Z,17.46
2018-06-03T11:45:50.071Z,17.43
2018-06-03T11:46:49.902Z,17.47
2018-06-03T11:47:49.965Z,17.44
2018-06-03T11:48:49.993Z,17.40
2018-06-03T11:49:50.032Z,17.51
2018-06-03T11:50:50.073Z,17.47
2018-06-03T11:51:50.115Z,17.48
2018-06-03T11:52:50.156Z,17.50
2018-06-03T11:53:50.253Z,17.50
2018-06-03T11:54:50.253Z,17.54
2018-06-03T11:55:50.303Z,17.59
2018-06-03T11:56:50.346Z,17.63
2018-06-03T11:57:50.585Z,17.59
2018-06-03T11:58:50.425Z,17.57
2018-06-03T11:59:50.475Z,17.59
2018-06-03T12:00:50.519Z,17.62
2018-06-03T12:01:50.576Z,17.66
2018-06-03T12:02:50.589Z,17.79
2018-06-03T12:03:50.644Z,17.82
2018-06-03T12:04:50.675Z,17.78
2018-06-03T12:05:50.788Z,17.79
2018-06-03T12:06:50.770Z,17.76
2018-06-03T12:07:50.824Z,17.78
2018-06-03T12:08:50.856Z,17.69
2018-06-03T12:09:51.349Z,17.67
2018-06-03T12:10:50.951Z,17.57
2018-06-03T12:11:50.992Z,17.67
2018-06-03T12:12:51.037Z,17.79
2018-06-03T12:13:51.072Z,17.81
2018-06-03T12:14:51.134Z,17.76
2018-06-03T12:15:51.171Z,17.92
2018-06-03T12:16:51.197Z,17.89
2018-06-03T12:17:51.257Z,17.85
2018-06-03T12:18:51.313Z,17.92
2018-06-03T12:19:51.334Z,17.79
2018-06-03T12:20:51.378Z,17.79
2018-06-03T12:21:51.843Z,17.82
2018-06-03T12:22:51.482Z,17.73
2018-06-03T12:23:51.529Z,17.79
2018-06-03T12:24:51.563Z,17.69
2018-06-03T12:25:51.619Z,17.79
2018-06-03T12:26:51.637Z,17.81
2018-06-03T12:27:51.681Z,17.91
2018-06-03T12:28:51.726Z,18.04
2018-06-03T12:29:51.772Z,18.06
2018-06-03T12:30:51.818Z,18.07
2018-06-03T12:31:52.075Z,18.07
2018-06-03T12:32:52.123Z,18.13
2018-06-03T12:33:51.947Z,18.06
2018-06-03T12:34:52.015Z,18.19
2018-06-03T12:35:52.038Z,18.19
2018-06-03T12:36:52.076Z,18.24
2018-06-03T12:37:52.343Z,18.17
2018-06-03T12:38:52.165Z,18.12
2018-06-03T12:39:52.214Z,17.99
2018-06-03T12:40:52.254Z,17.94
2018-06-03T12:41:52.367Z,17.95
2018-06-03T12:42:52.365Z,17.95
2018-06-03T12:43:52.388Z,17.89
2018-06-03T12:44:52.450Z,17.92
2018-06-03T12:45:52.492Z,18.02
2018-06-03T12:46:52.539Z,18.12
2018-06-03T12:47:52.586Z,18.06
2018-06-03T12:48:52.624Z,18.18
2018-06-03T12:49:52.886Z,18.19
2018-06-03T12:50:52.699Z,18.33
2018-06-03T12:51:52.752Z,18.40
2018-06-03T12:52:52.810Z,18.25
2018-06-03T12:53:52.837Z,18.27